sensor_id;sensor_type;location;lat;lon;timestamp;P1;durP1;ratioP1;P2;durP2;ratioP2
49109;SDS011;34921;52.320;16.142;2023-04-03T00:01:30;4.53;;;1.37;;
49109;SDS011;34921;52.320;16.142;2023-04-03T00:03:58;3.53;;;1.47;;
49109;SDS011;34921;52.320;16.142;2023-04-03T00:06:27;6.62;;;2.00;;
49109;SDS011;34921;52.320;16.142;2023-04-03T00:08:54;5.03;;;1.83;;
49109;SDS011;34921;52.320;16.142;2023-04-03T00:11:23;6.45;;;1.82;;
49109;SDS011;34921;52.320;16.142;2023-04-03T00:13:51;8.78;;;2.05;;
49109;SDS011;34921;52.320;16.142;2023-04-03T00:16:19;4.65;;;1.30;;
49109;SDS011;34921;52.320;16.142;2023-04-03T00:18:47;4.25;;;1.30;;
49109;SDS011;34921;52.320;16.142;2023-04-03T00:21:14;5.80;;;1.52;;
49109;SDS011;34921;52.320;16.142;2023-04-03T00:23:43;4.00;;;1.40;;
49109;SDS011;34921;52.320;16.142;2023-04-03T00:26:11;5.05;;;1.45;;
49109;SDS011;34921;52.320;16.142;2023-04-03T00:28:39;5.83;;;1.70;;
49109;SDS011;34921;52.320;16.142;2023-04-03T00:31:07;4.92;;;1.30;;
49109;SDS011;34921;52.320;16.142;2023-04-03T00:33:35;5.83;;;1.55;;
49109;SDS011;34921;52.320;16.142;2023-04-03T00:36:07;3.85;;;1.40;;
49109;SDS011;34921;52.320;16.142;2023-04-03T00:38:36;6.20;;;1.90;;
49109;SDS011;34921;52.320;16.142;2023-04-03T00:41:04;5.00;;;1.55;;
49109;SDS011;34921;52.320;16.142;2023-04-03T00:43:32;6.05;;;1.60;;
49109;SDS011;34921;52.320;16.142;2023-04-03T00:46:00;7.30;;;1.60;;
49109;SDS011;34921;52.320;16.142;2023-04-03T00:48:33;5.58;;;1.55;;
49109;SDS011;34921;52.320;16.142;2023-04-03T00:51:04;8.50;;;1.42;;
49109;SDS011;34921;52.320;16.142;2023-04-03T00:53:35;4.62;;;1.37;;
49109;SDS011;34921;52.320;16.142;2023-04-03T00:56:08;4.42;;;1.35;;
49109;SDS011;34921;52.320;16.142;2023-04-03T00:58:41;4.58;;;1.40;;
49109;SDS011;34921;52.320;16.142;2023-04-03T01:01:13;5.87;;;1.60;;
49109;SDS011;34921;52.320;16.142;2023-04-03T01:03:44;4.28;;;1.37;;
49109;SDS011;34921;52.320;16.142;2023-04-03T01:06:12;5.33;;;1.50;;
49109;SDS011;34921;52.320;16.142;2023-04-03T01:08:40;4.08;;;1.57;;
49109;SDS011;34921;52.320;16.142;2023-04-03T01:11:08;4.42;;;1.37;;
49109;SDS011;34921;52.320;16.142;2023-04-03T01:13:36;5.15;;;1.50;;
49109;SDS011;34921;52.320;16.142;2023-04-03T01:16:05;4.67;;;1.47;;
49109;SDS011;34921;52.320;16.142;2023-04-03T01:18:34;5.85;;;1.57;;
49109;SDS011;34921;52.320;16.142;2023-04-03T01:26:54;7.75;;;1.70;;
49109;SDS011;34921;52.320;16.142;2023-04-03T01:29:22;4.57;;;1.60;;
49109;SDS011;34921;52.320;16.142;2023-04-03T01:31:51;8.50;;;1.95;;
49109;SDS011;34921;52.320;16.142;2023-04-03T01:34:24;5.00;;;1.77;;
49109;SDS011;34921;52.320;16.142;2023-04-03T01:36:52;7.22;;;1.30;;
49109;SDS011;34921;52.320;16.142;2023-04-03T01:39:20;6.33;;;1.62;;
49109;SDS011;34921;52.320;16.142;2023-04-03T01:41:49;4.80;;;1.77;;
49109;SDS011;34921;52.320;16.142;2023-04-03T01:44:17;7.20;;;1.80;;
49109;SDS011;34921;52.320;16.142;2023-04-03T01:46:45;5.28;;;1.42;;
49109;SDS011;34921;52.320;16.142;2023-04-03T01:49:13;4.37;;;1.27;;
49109;SDS011;34921;52.320;16.142;2023-04-03T01:51:41;5.35;;;1.40;;
49109;SDS011;34921;52.320;16.142;2023-04-03T01:54:09;4.40;;;1.10;;
49109;SDS011;34921;52.320;16.142;2023-04-03T01:56:37;5.28;;;1.42;;
49109;SDS011;34921;52.320;16.142;2023-04-03T01:59:06;6.67;;;1.40;;
49109;SDS011;34921;52.320;16.142;2023-04-03T02:01:34;5.30;;;1.50;;
49109;SDS011;34921;52.320;16.142;2023-04-03T02:04:02;6.08;;;1.40;;
49109;SDS011;34921;52.320;16.142;2023-04-03T02:06:30;5.17;;;1.40;;
49109;SDS011;34921;52.320;16.142;2023-04-03T02:08:58;3.58;;;1.30;;
49109;SDS011;34921;52.320;16.142;2023-04-03T02:11:26;4.62;;;1.42;;
49109;SDS011;34921;52.320;16.142;2023-04-03T02:13:54;5.97;;;1.70;;
49109;SDS011;34921;52.320;16.142;2023-04-03T02:16:22;5.27;;;1.50;;
49109;SDS011;34921;52.320;16.142;2023-04-03T02:18:49;6.55;;;1.40;;
49109;SDS011;34921;52.320;16.142;2023-04-03T02:21:18;3.75;;;1.30;;
49109;SDS011;34921;52.320;16.142;2023-04-03T02:23:46;4.78;;;1.40;;
49109;SDS011;34921;52.320;16.142;2023-04-03T02:26:14;4.45;;;1.17;;
49109;SDS011;34921;52.320;16.142;2023-04-03T02:28:43;5.53;;;1.50;;
49109;SDS011;34921;52.320;16.142;2023-04-03T02:31:11;4.30;;;1.42;;
49109;SDS011;34921;52.320;16.142;2023-04-03T02:33:39;5.25;;;1.50;;
49109;SDS011;34921;52.320;16.142;2023-04-03T02:36:07;6.17;;;1.50;;
49109;SDS011;34921;52.320;16.142;2023-04-03T02:38:36;7.33;;;1.67;;
49109;SDS011;34921;52.320;16.142;2023-04-03T02:41:05;5.33;;;1.37;;
49109;SDS011;34921;52.320;16.142;2023-04-03T02:43:34;4.30;;;1.37;;
49109;SDS011;34921;52.320;16.142;2023-04-03T02:46:03;4.33;;;1.30;;
49109;SDS011;34921;52.320;16.142;2023-04-03T02:48:32;6.67;;;1.55;;
49109;SDS011;34921;52.320;16.142;2023-04-03T02:51:00;5.60;;;1.30;;
49109;SDS011;34921;52.320;16.142;2023-04-03T02:53:28;4.17;;;1.45;;
49109;SDS011;34921;52.320;16.142;2023-04-03T03:01:18;5.70;;;1.57;;
49109;SDS011;34921;52.320;16.142;2023-04-03T03:03:46;4.70;;;1.37;;
49109;SDS011;34921;52.320;16.142;2023-04-03T03:06:15;6.72;;;1.55;;
49109;SDS011;34921;52.320;16.142;2023-04-03T03:08:44;5.60;;;1.72;;
49109;SDS011;34921;52.320;16.142;2023-04-03T03:11:12;4.67;;;1.57;;
49109;SDS011;34921;52.320;16.142;2023-04-03T03:13:40;4.85;;;1.40;;
49109;SDS011;34921;52.320;16.142;2023-04-03T03:16:08;7.28;;;1.40;;
49109;SDS011;34921;52.320;16.142;2023-04-03T03:18:36;4.47;;;1.37;;
49109;SDS011;34921;52.320;16.142;2023-04-03T03:21:04;5.20;;;1.47;;
49109;SDS011;34921;52.320;16.142;2023-04-03T03:23:32;6.80;;;1.42;;
49109;SDS011;34921;52.320;16.142;2023-04-03T03:26:02;5.47;;;1.57;;
49109;SDS011;34921;52.320;16.142;2023-04-03T03:28:35;6.80;;;1.97;;
49109;SDS011;34921;52.320;16.142;2023-04-03T03:31:03;6.83;;;1.65;;
49109;SDS011;34921;52.320;16.142;2023-04-03T03:33:32;4.87;;;1.60;;
49109;SDS011;34921;52.320;16.142;2023-04-03T03:36:00;4.30;;;1.30;;
49109;SDS011;34921;52.320;16.142;2023-04-03T03:38:28;5.20;;;1.60;;
49109;SDS011;34921;52.320;16.142;2023-04-03T03:40:56;5.10;;;1.50;;
49109;SDS011;34921;52.320;16.142;2023-04-03T03:43:24;6.43;;;2.10;;
49109;SDS011;34921;52.320;16.142;2023-04-03T03:45:52;7.42;;;1.65;;
49109;SDS011;34921;52.320;16.142;2023-04-03T03:48:21;8.18;;;2.20;;
49109;SDS011;34921;52.320;16.142;2023-04-03T03:50:49;6.97;;;2.27;;
49109;SDS011;34921;52.320;16.142;2023-04-03T03:53:17;7.65;;;2.12;;
49109;SDS011;34921;52.320;16.142;2023-04-03T03:55:45;6.92;;;2.00;;
49109;SDS011;34921;52.320;16.142;2023-04-03T03:58:13;8.48;;;2.05;;
49109;SDS011;34921;52.320;16.142;2023-04-03T04:00:41;6.25;;;2.20;;
49109;SDS011;34921;52.320;16.142;2023-04-03T04:03:09;5.30;;;1.98;;
49109;SDS011;34921;52.320;16.142;2023-04-03T04:05:37;5.40;;;1.77;;
49109;SDS011;34921;52.320;16.142;2023-04-03T04:08:05;5.90;;;1.57;;
49109;SDS011;34921;52.320;16.142;2023-04-03T04:10:33;7.53;;;1.67;;
49109;SDS011;34921;52.320;16.142;2023-04-03T04:13:01;6.50;;;1.90;;
49109;SDS011;34921;52.320;16.142;2023-04-03T04:15:29;8.23;;;1.90;;
49109;SDS011;34921;52.320;16.142;2023-04-03T04:17:58;5.60;;;1.50;;
49109;SDS011;34921;52.320;16.142;2023-04-03T04:20:26;7.25;;;1.87;;
49109;SDS011;34921;52.320;16.142;2023-04-03T04:22:54;6.20;;;1.60;;
49109;SDS011;34921;52.320;16.142;2023-04-03T04:25:22;6.12;;;1.65;;
49109;SDS011;34921;52.320;16.142;2023-04-03T04:27:50;6.67;;;1.87;;
49109;SDS011;34921;52.320;16.142;2023-04-03T04:30:18;10.45;;;1.72;;
49109;SDS011;34921;52.320;16.142;2023-04-03T04:32:46;6.72;;;1.60;;
49109;SDS011;34921;52.320;16.142;2023-04-03T04:35:14;7.50;;;2.25;;
49109;SDS011;34921;52.320;16.142;2023-04-03T04:37:42;7.60;;;1.82;;
49109;SDS011;34921;52.320;16.142;2023-04-03T04:40:10;8.43;;;1.95;;
49109;SDS011;34921;52.320;16.142;2023-04-03T04:42:38;7.58;;;1.90;;
49109;SDS011;34921;52.320;16.142;2023-04-03T04:45:06;5.42;;;1.87;;
49109;SDS011;34921;52.320;16.142;2023-04-03T04:47:35;4.75;;;1.80;;
49109;SDS011;34921;52.320;16.142;2023-04-03T04:50:03;4.55;;;1.90;;
49109;SDS011;34921;52.320;16.142;2023-04-03T04:52:31;5.58;;;1.62;;
49109;SDS011;34921;52.320;16.142;2023-04-03T04:54:59;9.00;;;1.82;;
49109;SDS011;34921;52.320;16.142;2023-04-03T04:57:27;3.90;;;1.72;;
49109;SDS011;34921;52.320;16.142;2023-04-03T04:59:55;6.85;;;1.87;;
49109;SDS011;34921;52.320;16.142;2023-04-03T05:02:23;4.58;;;1.80;;
49109;SDS011;34921;52.320;16.142;2023-04-03T05:04:51;5.58;;;1.87;;
49109;SDS011;34921;52.320;16.142;2023-04-03T05:07:20;5.83;;;1.42;;
49109;SDS011;34921;52.320;16.142;2023-04-03T05:09:47;7.95;;;1.80;;
49109;SDS011;34921;52.320;16.142;2023-04-03T05:12:16;6.47;;;1.60;;
49109;SDS011;34921;52.320;16.142;2023-04-03T05:14:44;6.00;;;1.65;;
49109;SDS011;34921;52.320;16.142;2023-04-03T05:17:12;8.20;;;1.70;;
49109;SDS011;34921;52.320;16.142;2023-04-03T05:19:40;5.65;;;1.67;;
49109;SDS011;34921;52.320;16.142;2023-04-03T05:22:08;5.42;;;1.65;;
49109;SDS011;34921;52.320;16.142;2023-04-03T05:24:36;6.72;;;1.50;;
49109;SDS011;34921;52.320;16.142;2023-04-03T05:27:04;5.35;;;1.65;;
49109;SDS011;34921;52.320;16.142;2023-04-03T05:29:32;5.33;;;1.87;;
49109;SDS011;34921;52.320;16.142;2023-04-03T05:32:00;3.35;;;1.17;;
49109;SDS011;34921;52.320;16.142;2023-04-03T05:34:28;5.28;;;1.70;;
49109;SDS011;34921;52.320;16.142;2023-04-03T05:36:56;4.28;;;1.30;;
49109;SDS011;34921;52.320;16.142;2023-04-03T05:39:24;4.58;;;1.20;;
49109;SDS011;34921;52.320;16.142;2023-04-03T05:41:53;5.50;;;1.47;;
49109;SDS011;34921;52.320;16.142;2023-04-03T05:44:20;4.90;;;1.70;;
49109;SDS011;34921;52.320;16.142;2023-04-03T05:46:48;2.80;;;1.27;;
49109;SDS011;34921;52.320;16.142;2023-04-03T05:49:16;7.62;;;1.75;;
49109;SDS011;34921;52.320;16.142;2023-04-03T05:51:44;7.35;;;1.85;;
49109;SDS011;34921;52.320;16.142;2023-04-03T05:54:13;6.97;;;1.62;;
49109;SDS011;34921;52.320;16.142;2023-04-03T05:56:45;7.40;;;2.40;;
49109;SDS011;34921;52.320;16.142;2023-04-03T05:59:13;8.70;;;2.73;;
49109;SDS011;34921;52.320;16.142;2023-04-03T06:01:41;11.80;;;3.50;;
49109;SDS011;34921;52.320;16.142;2023-04-03T06:04:09;9.10;;;3.50;;
49109;SDS011;34921;52.320;16.142;2023-04-03T06:09:13;6.43;;;2.13;;
49109;SDS011;34921;52.320;16.142;2023-04-03T06:11:41;6.90;;;1.77;;
49109;SDS011;34921;52.320;16.142;2023-04-03T06:14:09;6.47;;;2.52;;
49109;SDS011;34921;52.320;16.142;2023-04-03T06:16:38;4.15;;;1.65;;
49109;SDS011;34921;52.320;16.142;2023-04-03T06:19:10;5.50;;;1.67;;
49109;SDS011;34921;52.320;16.142;2023-04-03T06:21:39;5.22;;;1.90;;
49109;SDS011;34921;52.320;16.142;2023-04-03T06:24:07;7.97;;;1.50;;
49109;SDS011;34921;52.320;16.142;2023-04-03T06:26:39;5.03;;;1.50;;
49109;SDS011;34921;52.320;16.142;2023-04-03T06:29:07;6.75;;;1.62;;
49109;SDS011;34921;52.320;16.142;2023-04-03T06:31:36;3.45;;;1.37;;
49109;SDS011;34921;52.320;16.142;2023-04-03T06:34:04;3.92;;;1.45;;
49109;SDS011;34921;52.320;16.142;2023-04-03T06:36:33;5.70;;;1.75;;
49109;SDS011;34921;52.320;16.142;2023-04-03T06:39:02;5.22;;;1.95;;
49109;SDS011;34921;52.320;16.142;2023-04-03T06:41:31;4.78;;;1.70;;
49109;SDS011;34921;52.320;16.142;2023-04-03T06:43:59;4.35;;;1.30;;
49109;SDS011;34921;52.320;16.142;2023-04-03T06:46:27;5.15;;;1.70;;
49109;SDS011;34921;52.320;16.142;2023-04-03T06:48:55;6.97;;;2.08;;
49109;SDS011;34921;52.320;16.142;2023-04-03T06:51:27;5.05;;;1.70;;
49109;SDS011;34921;52.320;16.142;2023-04-03T06:53:59;4.85;;;1.80;;
49109;SDS011;34921;52.320;16.142;2023-04-03T06:56:27;8.85;;;2.95;;
49109;SDS011;34921;52.320;16.142;2023-04-03T06:58:55;5.53;;;2.10;;
49109;SDS011;34921;52.320;16.142;2023-04-03T07:01:28;4.03;;;1.55;;
49109;SDS011;34921;52.320;16.142;2023-04-03T07:03:58;4.55;;;1.45;;
49109;SDS011;34921;52.320;16.142;2023-04-03T07:06:26;4.78;;;1.60;;
49109;SDS011;34921;52.320;16.142;2023-04-03T07:08:55;5.58;;;1.57;;
49109;SDS011;34921;52.320;16.142;2023-04-03T07:11:23;11.78;;;3.42;;
49109;SDS011;34921;52.320;16.142;2023-04-03T07:13:52;13.00;;;7.65;;
49109;SDS011;34921;52.320;16.142;2023-04-03T07:16:21;13.30;;;8.65;;
49109;SDS011;34921;52.320;16.142;2023-04-03T07:18:49;8.85;;;3.47;;
49109;SDS011;34921;52.320;16.142;2023-04-03T07:21:17;8.28;;;4.42;;
49109;SDS011;34921;52.320;16.142;2023-04-03T07:23:44;7.23;;;2.40;;
49109;SDS011;34921;52.320;16.142;2023-04-03T07:26:13;5.08;;;2.33;;
49109;SDS011;34921;52.320;16.142;2023-04-03T07:28:41;7.22;;;3.20;;
49109;SDS011;34921;52.320;16.142;2023-04-03T07:31:11;7.33;;;3.67;;
49109;SDS011;34921;52.320;16.142;2023-04-03T07:33:41;8.63;;;3.70;;
49109;SDS011;34921;52.320;16.142;2023-04-03T07:36:09;6.42;;;3.37;;
49109;SDS011;34921;52.320;16.142;2023-04-03T07:38:42;7.75;;;2.05;;
49109;SDS011;34921;52.320;16.142;2023-04-03T07:41:14;6.28;;;3.00;;
49109;SDS011;34921;52.320;16.142;2023-04-03T07:43:44;9.00;;;5.58;;
49109;SDS011;34921;52.320;16.142;2023-04-03T07:46:13;20.00;;;12.57;;
49109;SDS011;34921;52.320;16.142;2023-04-03T07:48:41;14.15;;;8.95;;
49109;SDS011;34921;52.320;16.142;2023-04-03T07:51:09;7.75;;;4.90;;
49109;SDS011;34921;52.320;16.142;2023-04-03T07:53:38;7.85;;;3.12;;
49109;SDS011;34921;52.320;16.142;2023-04-03T07:56:06;7.30;;;3.37;;
49109;SDS011;34921;52.320;16.142;2023-04-03T07:58:34;6.90;;;2.20;;
49109;SDS011;34921;52.320;16.142;2023-04-03T08:01:02;7.25;;;2.45;;
49109;SDS011;34921;52.320;16.142;2023-04-03T08:03:30;8.08;;;3.40;;
49109;SDS011;34921;52.320;16.142;2023-04-03T08:06:03;7.25;;;2.83;;
49109;SDS011;34921;52.320;16.142;2023-04-03T08:08:32;79.92;;;32.10;;
49109;SDS011;34921;52.320;16.142;2023-04-03T08:11:01;118.30;;;44.35;;
49109;SDS011;34921;52.320;16.142;2023-04-03T08:13:30;76.97;;;30.25;;
49109;SDS011;34921;52.320;16.142;2023-04-03T08:15:58;40.17;;;15.63;;
49109;SDS011;34921;52.320;16.142;2023-04-03T08:21:07;27.80;;;10.80;;
49109;SDS011;34921;52.320;16.142;2023-04-03T08:23:37;37.05;;;16.02;;
49109;SDS011;34921;52.320;16.142;2023-04-03T08:26:16;38.30;;;14.93;;
49109;SDS011;34921;52.320;16.142;2023-04-03T08:28:45;36.50;;;15.60;;
49109;SDS011;34921;52.320;16.142;2023-04-03T08:31:15;54.53;;;20.63;;
49109;SDS011;34921;52.320;16.142;2023-04-03T08:33:46;37.20;;;18.17;;
49109;SDS011;34921;52.320;16.142;2023-04-03T08:38:50;16.48;;;4.37;;
49109;SDS011;34921;52.320;16.142;2023-04-03T08:49:11;6.95;;;2.50;;
49109;SDS011;34921;52.320;16.142;2023-04-03T08:52:05;12.73;;;5.80;;
49109;SDS011;34921;52.320;16.142;2023-04-03T08:57:09;8.48;;;3.83;;
49109;SDS011;34921;52.320;16.142;2023-04-03T08:59:38;4.10;;;1.70;;
49109;SDS011;34921;52.320;16.142;2023-04-03T09:02:18;4.75;;;1.37;;
49109;SDS011;34921;52.320;16.142;2023-04-03T09:04:54;4.33;;;1.50;;
49109;SDS011;34921;52.320;16.142;2023-04-03T09:07:26;4.97;;;1.42;;
49109;SDS011;34921;52.320;16.142;2023-04-03T09:10:01;5.62;;;1.85;;
49109;SDS011;34921;52.320;16.142;2023-04-03T09:12:34;5.50;;;1.52;;
49109;SDS011;34921;52.320;16.142;2023-04-03T09:15:15;6.30;;;1.57;;
49109;SDS011;34921;52.320;16.142;2023-04-03T09:22:56;5.55;;;1.40;;
49109;SDS011;34921;52.320;16.142;2023-04-03T09:28:00;8.68;;;1.90;;
49109;SDS011;34921;52.320;16.142;2023-04-03T09:30:30;4.45;;;1.87;;
49109;SDS011;34921;52.320;16.142;2023-04-03T09:32:58;3.60;;;1.50;;
49109;SDS011;34921;52.320;16.142;2023-04-03T09:35:29;5.12;;;1.45;;
49109;SDS011;34921;52.320;16.142;2023-04-03T09:40:41;3.60;;;1.30;;
49109;SDS011;34921;52.320;16.142;2023-04-03T09:45:45;2.62;;;1.12;;
49109;SDS011;34921;52.320;16.142;2023-04-03T09:55:59;5.30;;;2.17;;
49109;SDS011;34921;52.320;16.142;2023-04-03T09:58:28;6.17;;;2.60;;
49109;SDS011;34921;52.320;16.142;2023-04-03T10:01:20;3.83;;;1.50;;
49109;SDS011;34921;52.320;16.142;2023-04-03T10:06:30;4.50;;;1.98;;
49109;SDS011;34921;52.320;16.142;2023-04-03T10:09:01;5.37;;;1.90;;
49109;SDS011;34921;52.320;16.142;2023-04-03T10:11:32;6.10;;;1.77;;
49109;SDS011;34921;52.320;16.142;2023-04-03T10:14:02;5.45;;;1.57;;
49109;SDS011;34921;52.320;16.142;2023-04-03T10:16:33;4.85;;;1.75;;
49109;SDS011;34921;52.320;16.142;2023-04-03T10:19:09;4.63;;;1.40;;
49109;SDS011;34921;52.320;16.142;2023-04-03T10:24:18;5.25;;;1.52;;
49109;SDS011;34921;52.320;16.142;2023-04-03T10:26:58;6.15;;;2.25;;
49109;SDS011;34921;52.320;16.142;2023-04-03T10:29:55;4.17;;;1.80;;
49109;SDS011;34921;52.320;16.142;2023-04-03T10:35:18;6.60;;;2.05;;
49109;SDS011;34921;52.320;16.142;2023-04-03T10:43:33;3.80;;;1.72;;
49109;SDS011;34921;52.320;16.142;2023-04-03T10:46:17;5.90;;;2.25;;
49109;SDS011;34921;52.320;16.142;2023-04-03T10:48:54;6.65;;;3.20;;
49109;SDS011;34921;52.320;16.142;2023-04-03T10:56:47;7.35;;;3.17;;
49109;SDS011;34921;52.320;16.142;2023-04-03T10:59:25;5.87;;;2.30;;
49109;SDS011;34921;52.320;16.142;2023-04-03T11:02:07;40.20;;;23.52;;
49109;SDS011;34921;52.320;16.142;2023-04-03T11:04:47;12.53;;;7.28;;
49109;SDS011;34921;52.320;16.142;2023-04-03T11:07:24;14.10;;;5.37;;
49109;SDS011;34921;52.320;16.142;2023-04-03T11:10:03;14.87;;;5.97;;
49109;SDS011;34921;52.320;16.142;2023-04-03T11:12:48;4.03;;;1.80;;
49109;SDS011;34921;52.320;16.142;2023-04-03T11:15:20;29.75;;;24.02;;
49109;SDS011;34921;52.320;16.142;2023-04-03T11:17:52;11.85;;;8.08;;
49109;SDS011;34921;52.320;16.142;2023-04-03T11:20:24;10.65;;;5.28;;
49109;SDS011;34921;52.320;16.142;2023-04-03T11:23:01;24.05;;;9.98;;
49109;SDS011;34921;52.320;16.142;2023-04-03T11:25:34;12.58;;;4.78;;
49109;SDS011;34921;52.320;16.142;2023-04-03T11:28:10;7.80;;;3.77;;
49109;SDS011;34921;52.320;16.142;2023-04-03T11:35:53;22.02;;;12.18;;
49109;SDS011;34921;52.320;16.142;2023-04-03T11:38:25;25.92;;;16.05;;
49109;SDS011;34921;52.320;16.142;2023-04-03T11:40:57;9.15;;;5.67;;
49109;SDS011;34921;52.320;16.142;2023-04-03T11:43:27;7.15;;;3.60;;
49109;SDS011;34921;52.320;16.142;2023-04-03T11:46:04;9.53;;;4.00;;
49109;SDS011;34921;52.320;16.142;2023-04-03T11:53:34;9.75;;;4.70;;
49109;SDS011;34921;52.320;16.142;2023-04-03T11:56:04;9.65;;;3.80;;
49109;SDS011;34921;52.320;16.142;2023-04-03T12:01:52;9.50;;;4.67;;
49109;SDS011;34921;52.320;16.142;2023-04-03T12:04:22;6.00;;;3.50;;
49109;SDS011;34921;52.320;16.142;2023-04-03T12:06:54;6.70;;;2.98;;
49109;SDS011;34921;52.320;16.142;2023-04-03T12:14:27;6.55;;;2.10;;
49109;SDS011;34921;52.320;16.142;2023-04-03T12:16:56;5.03;;;1.87;;
49109;SDS011;34921;52.320;16.142;2023-04-03T12:19:38;4.93;;;2.30;;
49109;SDS011;34921;52.320;16.142;2023-04-03T12:22:13;8.50;;;2.50;;
49109;SDS011;34921;52.320;16.142;2023-04-03T12:24:44;4.40;;;1.82;;
49109;SDS011;34921;52.320;16.142;2023-04-03T12:27:20;6.05;;;2.37;;
49109;SDS011;34921;52.320;16.142;2023-04-03T12:32:54;6.03;;;2.35;;
49109;SDS011;34921;52.320;16.142;2023-04-03T12:46:24;9.05;;;4.25;;
49109;SDS011;34921;52.320;16.142;2023-04-03T12:48:57;7.47;;;3.12;;
49109;SDS011;34921;52.320;16.142;2023-04-03T12:54:22;4.97;;;2.10;;
49109;SDS011;34921;52.320;16.142;2023-04-03T12:57:08;5.83;;;2.00;;
49109;SDS011;34921;52.320;16.142;2023-04-03T12:59:38;4.60;;;1.98;;
49109;SDS011;34921;52.320;16.142;2023-04-03T13:02:10;6.53;;;2.45;;
49109;SDS011;34921;52.320;16.142;2023-04-03T13:04:51;3.55;;;2.00;;
49109;SDS011;34921;52.320;16.142;2023-04-03T13:07:22;6.72;;;2.45;;
49109;SDS011;34921;52.320;16.142;2023-04-03T13:09:57;13.60;;;5.60;;
49109;SDS011;34921;52.320;16.142;2023-04-03T13:12:27;12.37;;;5.33;;
49109;SDS011;34921;52.320;16.142;2023-04-03T13:14:56;6.58;;;2.77;;
49109;SDS011;34921;52.320;16.142;2023-04-03T13:17:27;4.58;;;1.98;;
49109;SDS011;34921;52.320;16.142;2023-04-03T13:19:56;7.97;;;3.70;;
49109;SDS011;34921;52.320;16.142;2023-04-03T13:22:57;7.22;;;2.37;;
49109;SDS011;34921;52.320;16.142;2023-04-03T13:25:32;4.65;;;2.00;;
49109;SDS011;34921;52.320;16.142;2023-04-03T13:28:02;4.97;;;2.08;;
49109;SDS011;34921;52.320;16.142;2023-04-03T13:30:33;4.47;;;2.10;;
49109;SDS011;34921;52.320;16.142;2023-04-03T13:33:19;3.67;;;1.72;;
49109;SDS011;34921;52.320;16.142;2023-04-03T13:36:03;9.45;;;2.45;;
49109;SDS011;34921;52.320;16.142;2023-04-03T13:38:33;6.07;;;2.10;;
49109;SDS011;34921;52.320;16.142;2023-04-03T13:41:26;3.53;;;1.53;;
49109;SDS011;34921;52.320;16.142;2023-04-03T13:43:53;4.00;;;1.90;;
49109;SDS011;34921;52.320;16.142;2023-04-03T13:46:23;8.48;;;3.30;;
49109;SDS011;34921;52.320;16.142;2023-04-03T13:48:54;6.58;;;2.83;;
49109;SDS011;34921;52.320;16.142;2023-04-03T13:51:25;6.17;;;2.50;;
49109;SDS011;34921;52.320;16.142;2023-04-03T14:04:55;4.95;;;1.70;;
49109;SDS011;34921;52.320;16.142;2023-04-03T14:07:25;4.70;;;1.77;;
49109;SDS011;34921;52.320;16.142;2023-04-03T14:09:54;4.97;;;1.67;;
49109;SDS011;34921;52.320;16.142;2023-04-03T14:12:31;5.40;;;2.25;;
49109;SDS011;34921;52.320;16.142;2023-04-03T14:15:02;6.25;;;1.90;;
49109;SDS011;34921;52.320;16.142;2023-04-03T14:19:59;3.95;;;1.40;;
49109;SDS011;34921;52.320;16.142;2023-04-03T14:22:30;5.87;;;2.10;;
49109;SDS011;34921;52.320;16.142;2023-04-03T14:24:59;4.92;;;2.10;;
49109;SDS011;34921;52.320;16.142;2023-04-03T14:27:29;5.33;;;2.40;;
49109;SDS011;34921;52.320;16.142;2023-04-03T14:30:02;6.83;;;2.90;;
49109;SDS011;34921;52.320;16.142;2023-04-03T14:32:31;6.62;;;3.80;;
49109;SDS011;34921;52.320;16.142;2023-04-03T14:34:59;5.65;;;2.70;;
49109;SDS011;34921;52.320;16.142;2023-04-03T14:37:28;8.55;;;3.37;;
49109;SDS011;34921;52.320;16.142;2023-04-03T14:39:58;13.43;;;8.20;;
49109;SDS011;34921;52.320;16.142;2023-04-03T14:42:32;13.25;;;6.90;;
49109;SDS011;34921;52.320;16.142;2023-04-03T14:45:04;15.00;;;7.60;;
49109;SDS011;34921;52.320;16.142;2023-04-03T14:47:34;9.93;;;4.60;;
49109;SDS011;34921;52.320;16.142;2023-04-03T14:50:07;9.65;;;4.53;;
49109;SDS011;34921;52.320;16.142;2023-04-03T14:52:40;7.60;;;3.67;;
49109;SDS011;34921;52.320;16.142;2023-04-03T14:55:08;5.27;;;2.37;;
49109;SDS011;34921;52.320;16.142;2023-04-03T14:57:36;5.95;;;1.80;;
49109;SDS011;34921;52.320;16.142;2023-04-03T15:00:07;6.58;;;2.80;;
49109;SDS011;34921;52.320;16.142;2023-04-03T15:02:39;6.78;;;2.90;;
49109;SDS011;34921;52.320;16.142;2023-04-03T15:05:09;8.13;;;3.33;;
49109;SDS011;34921;52.320;16.142;2023-04-03T15:07:42;12.75;;;6.12;;
49109;SDS011;34921;52.320;16.142;2023-04-03T15:12:47;10.88;;;4.87;;
49109;SDS011;34921;52.320;16.142;2023-04-03T15:15:16;8.33;;;3.22;;
49109;SDS011;34921;52.320;16.142;2023-04-03T15:17:47;4.58;;;2.47;;
49109;SDS011;34921;52.320;16.142;2023-04-03T15:20:22;5.70;;;2.17;;
49109;SDS011;34921;52.320;16.142;2023-04-03T15:22:51;7.80;;;2.40;;
49109;SDS011;34921;52.320;16.142;2023-04-03T15:25:20;5.12;;;2.00;;
49109;SDS011;34921;52.320;16.142;2023-04-03T15:27:48;4.40;;;1.70;;
49109;SDS011;34921;52.320;16.142;2023-04-03T15:30:17;4.47;;;1.70;;
49109;SDS011;34921;52.320;16.142;2023-04-03T15:32:47;4.08;;;1.52;;
49109;SDS011;34921;52.320;16.142;2023-04-03T15:35:15;3.83;;;1.60;;
49109;SDS011;34921;52.320;16.142;2023-04-03T15:37:43;5.20;;;1.85;;
49109;SDS011;34921;52.320;16.142;2023-04-03T15:40:11;4.12;;;2.12;;
49109;SDS011;34921;52.320;16.142;2023-04-03T15:42:40;4.50;;;2.25;;
49109;SDS011;34921;52.320;16.142;2023-04-03T15:45:08;7.35;;;3.15;;
49109;SDS011;34921;52.320;16.142;2023-04-03T15:47:36;6.22;;;2.55;;
49109;SDS011;34921;52.320;16.142;2023-04-03T15:53:34;5.55;;;2.50;;
49109;SDS011;34921;52.320;16.142;2023-04-03T15:56:03;7.00;;;3.70;;
49109;SDS011;34921;52.320;16.142;2023-04-03T15:58:33;4.72;;;2.30;;
49109;SDS011;34921;52.320;16.142;2023-04-03T16:01:01;5.75;;;2.95;;
49109;SDS011;34921;52.320;16.142;2023-04-03T16:03:30;24.67;;;12.87;;
49109;SDS011;34921;52.320;16.142;2023-04-03T16:05:59;25.40;;;21.62;;
49109;SDS011;34921;52.320;16.142;2023-04-03T16:08:29;9.80;;;8.50;;
49109;SDS011;34921;52.320;16.142;2023-04-03T16:10:57;10.30;;;5.85;;
49109;SDS011;34921;52.320;16.142;2023-04-03T16:13:26;9.75;;;7.42;;
49109;SDS011;34921;52.320;16.142;2023-04-03T16:15:55;11.57;;;7.47;;
49109;SDS011;34921;52.320;16.142;2023-04-03T16:18:24;8.90;;;5.83;;
49109;SDS011;34921;52.320;16.142;2023-04-03T16:20:52;6.10;;;3.72;;
49109;SDS011;34921;52.320;16.142;2023-04-03T16:23:21;6.70;;;2.60;;
49109;SDS011;34921;52.320;16.142;2023-04-03T16:25:49;8.05;;;3.00;;
49109;SDS011;34921;52.320;16.142;2023-04-03T16:28:18;7.78;;;2.95;;
49109;SDS011;34921;52.320;16.142;2023-04-03T16:30:48;9.23;;;3.60;;
49109;SDS011;34921;52.320;16.142;2023-04-03T16:33:17;10.78;;;7.20;;
49109;SDS011;34921;52.320;16.142;2023-04-03T16:35:50;11.18;;;3.70;;
49109;SDS011;34921;52.320;16.142;2023-04-03T16:38:19;11.53;;;3.20;;
49109;SDS011;34921;52.320;16.142;2023-04-03T16:44:20;56.15;;;27.17;;
49109;SDS011;34921;52.320;16.142;2023-04-03T16:46:49;35.90;;;18.02;;
49109;SDS011;34921;52.320;16.142;2023-04-03T16:55:18;31.17;;;15.75;;
49109;SDS011;34921;52.320;16.142;2023-04-03T16:57:47;30.48;;;15.98;;
49109;SDS011;34921;52.320;16.142;2023-04-03T17:00:15;16.12;;;8.35;;
49109;SDS011;34921;52.320;16.142;2023-04-03T17:02:44;51.23;;;24.05;;